sensor_id;sensor_type;location;lat;lon;timestamp;P1;durP1;ratioP1;P2;durP2;ratioP2
10489;SDS011;35569;48.402;10.670;2023-08-06T00:00:19;1.70;;;1.70;;
10489;SDS011;35569;48.402;10.670;2023-08-06T00:00:51;1.60;;;1.60;;
10489;SDS011;35569;48.402;10.670;2023-08-06T00:01:24;1.60;;;1.50;;
10489;SDS011;35569;48.402;10.670;2023-08-06T00:01:57;1.57;;;1.57;;
10489;SDS011;35569;48.402;10.670;2023-08-06T00:02:32;1.70;;;1.70;;
10489;SDS011;35569;48.402;10.670;2023-08-06T00:03:04;1.60;;;1.50;;
10489;SDS011;35569;48.402;10.670;2023-08-06T00:03:37;1.30;;;1.30;;
10489;SDS011;35569;48.402;10.670;2023-08-06T00:04:10;1.30;;;1.30;;
10489;SDS011;35569;48.402;10.670;2023-08-06T00:04:45;1.57;;;1.57;;
10489;SDS011;35569;48.402;10.670;2023-08-06T00:05:17;1.30;;;1.30;;
10489;SDS011;35569;48.402;10.670;2023-08-06T00:05:52;1.60;;;1.60;;
10489;SDS011;35569;48.402;10.670;2023-08-06T00:06:27;1.37;;;1.37;;
10489;SDS011;35569;48.402;10.670;2023-08-06T00:06:59;1.70;;;1.70;;
10489;SDS011;35569;48.402;10.670;2023-08-06T00:07:32;1.33;;;1.33;;
10489;SDS011;35569;48.402;10.670;2023-08-06T00:08:04;1.67;;;1.67;;
10489;SDS011;35569;48.402;10.670;2023-08-06T00:08:36;1.40;;;1.40;;
10489;SDS011;35569;48.402;10.670;2023-08-06T00:09:11;1.83;;;1.83;;
10489;SDS011;35569;48.402;10.670;2023-08-06T00:09:45;1.47;;;1.47;;
10489;SDS011;35569;48.402;10.670;2023-08-06T00:10:17;2.50;;;2.40;;
10489;SDS011;35569;48.402;10.670;2023-08-06T00:10:52;2.30;;;2.30;;
10489;SDS011;35569;48.402;10.670;2023-08-06T00:11:27;1.60;;;1.60;;
10489;SDS011;35569;48.402;10.670;2023-08-06T00:12:00;2.00;;;2.00;;
10489;SDS011;35569;48.402;10.670;2023-08-06T00:12:32;2.27;;;2.27;;
10489;SDS011;35569;48.402;10.670;2023-08-06T00:13:04;3.00;;;2.90;;
10489;SDS011;35569;48.402;10.670;2023-08-06T00:13:39;2.40;;;2.30;;
10489;SDS011;35569;48.402;10.670;2023-08-06T00:14:12;2.73;;;2.63;;
10489;SDS011;35569;48.402;10.670;2023-08-06T00:14:49;3.07;;;2.97;;
10489;SDS011;35569;48.402;10.670;2023-08-06T00:15:25;2.00;;;2.00;;
10489;SDS011;35569;48.402;10.670;2023-08-06T00:16:07;2.03;;;2.03;;
10489;SDS011;35569;48.402;10.670;2023-08-06T00:16:42;1.57;;;1.47;;
10489;SDS011;35569;48.402;10.670;2023-08-06T00:17:18;1.87;;;1.80;;
10489;SDS011;35569;48.402;10.670;2023-08-06T00:17:50;1.53;;;1.53;;
10489;SDS011;35569;48.402;10.670;2023-08-06T00:18:22;1.83;;;1.83;;
10489;SDS011;35569;48.402;10.670;2023-08-06T00:18:55;1.70;;;1.70;;
10489;SDS011;35569;48.402;10.670;2023-08-06T00:19:30;1.50;;;1.50;;
10489;SDS011;35569;48.402;10.670;2023-08-06T00:20:03;1.43;;;1.43;;
10489;SDS011;35569;48.402;10.670;2023-08-06T00:20:38;1.67;;;1.63;;
10489;SDS011;35569;48.402;10.670;2023-08-06T00:21:11;1.47;;;1.47;;
10489;SDS011;35569;48.402;10.670;2023-08-06T00:21:46;1.47;;;1.47;;
10489;SDS011;35569;48.402;10.670;2023-08-06T00:22:19;1.87;;;1.87;;
10489;SDS011;35569;48.402;10.670;2023-08-06T00:22:51;2.00;;;2.00;;
10489;SDS011;35569;48.402;10.670;2023-08-06T00:23:23;1.93;;;1.83;;
10489;SDS011;35569;48.402;10.670;2023-08-06T00:23:58;1.50;;;1.50;;
10489;SDS011;35569;48.402;10.670;2023-08-06T00:24:31;2.03;;;1.93;;
10489;SDS011;35569;48.402;10.670;2023-08-06T00:25:03;1.30;;;1.30;;
10489;SDS011;35569;48.402;10.670;2023-08-06T00:25:37;1.23;;;1.23;;
10489;SDS011;35569;48.402;10.670;2023-08-06T00:26:12;1.77;;;1.77;;
10489;SDS011;35569;48.402;10.670;2023-08-06T00:26:47;1.50;;;1.50;;
10489;SDS011;35569;48.402;10.670;2023-08-06T00:27:19;1.80;;;1.70;;
10489;SDS011;35569;48.402;10.670;2023-08-06T00:27:51;1.53;;;1.53;;
10489;SDS011;35569;48.402;10.670;2023-08-06T00:28:28;1.87;;;1.87;;
10489;SDS011;35569;48.402;10.670;2023-08-06T00:29:00;1.60;;;1.60;;
10489;SDS011;35569;48.402;10.670;2023-08-06T00:29:33;1.70;;;1.70;;
10489;SDS011;35569;48.402;10.670;2023-08-06T00:30:06;1.60;;;1.50;;
10489;SDS011;35569;48.402;10.670;2023-08-06T00:30:41;1.40;;;1.40;;
10489;SDS011;35569;48.402;10.670;2023-08-06T00:31:14;1.50;;;1.50;;
10489;SDS011;35569;48.402;10.670;2023-08-06T00:31:46;1.60;;;1.50;;
10489;SDS011;35569;48.402;10.670;2023-08-06T00:32:19;1.40;;;1.40;;
10489;SDS011;35569;48.402;10.670;2023-08-06T00:32:54;1.57;;;1.57;;
10489;SDS011;35569;48.402;10.670;2023-08-06T00:33:27;1.50;;;1.50;;
10489;SDS011;35569;48.402;10.670;2023-08-06T00:33:59;1.43;;;1.43;;
10489;SDS011;35569;48.402;10.670;2023-08-06T00:34:35;1.40;;;1.40;;
10489;SDS011;35569;48.402;10.670;2023-08-06T00:35:07;1.30;;;1.30;;
10489;SDS011;35569;48.402;10.670;2023-08-06T00:35:40;1.57;;;1.57;;
10489;SDS011;35569;48.402;10.670;2023-08-06T00:36:13;1.80;;;1.80;;
10489;SDS011;35569;48.402;10.670;2023-08-06T00:36:48;1.57;;;1.57;;
10489;SDS011;35569;48.402;10.670;2023-08-06T00:37:20;1.63;;;1.63;;
10489;SDS011;35569;48.402;10.670;2023-08-06T00:37:53;1.63;;;1.63;;
10489;SDS011;35569;48.402;10.670;2023-08-06T00:38:25;1.70;;;1.70;;
10489;SDS011;35569;48.402;10.670;2023-08-06T00:39:00;1.50;;;1.50;;
10489;SDS011;35569;48.402;10.670;2023-08-06T00:39:32;1.70;;;1.60;;
10489;SDS011;35569;48.402;10.670;2023-08-06T00:40:06;1.60;;;1.60;;
10489;SDS011;35569;48.402;10.670;2023-08-06T00:40:41;1.93;;;1.93;;
10489;SDS011;35569;48.402;10.670;2023-08-06T00:41:14;1.60;;;1.60;;
10489;SDS011;35569;48.402;10.670;2023-08-06T00:41:50;1.90;;;1.90;;
10489;SDS011;35569;48.402;10.670;2023-08-06T00:42:22;1.53;;;1.53;;
10489;SDS011;35569;48.402;10.670;2023-08-06T00:42:57;1.90;;;1.90;;
10489;SDS011;35569;48.402;10.670;2023-08-06T00:43:30;1.90;;;1.80;;
10489;SDS011;35569;48.402;10.670;2023-08-06T00:44:03;1.80;;;1.80;;
10489;SDS011;35569;48.402;10.670;2023-08-06T00:44:37;2.10;;;2.00;;
10489;SDS011;35569;48.402;10.670;2023-08-06T00:45:09;1.70;;;1.70;;
10489;SDS011;35569;48.402;10.670;2023-08-06T00:45:44;1.60;;;1.60;;
10489;SDS011;35569;48.402;10.670;2023-08-06T00:46:17;2.30;;;2.13;;
10489;SDS011;35569;48.402;10.670;2023-08-06T00:46:50;1.40;;;1.40;;
10489;SDS011;35569;48.402;10.670;2023-08-06T00:47:23;1.90;;;1.80;;
10489;SDS011;35569;48.402;10.670;2023-08-06T00:47:58;1.87;;;1.77;;
10489;SDS011;35569;48.402;10.670;2023-08-06T00:48:31;1.77;;;1.77;;
10489;SDS011;35569;48.402;10.670;2023-08-06T00:49:04;1.90;;;1.90;;
10489;SDS011;35569;48.402;10.670;2023-08-06T00:49:39;2.00;;;2.00;;
10489;SDS011;35569;48.402;10.670;2023-08-06T00:50:12;1.63;;;1.63;;
10489;SDS011;35569;48.402;10.670;2023-08-06T00:50:45;1.83;;;1.80;;
10489;SDS011;35569;48.402;10.670;2023-08-06T00:51:17;1.80;;;1.70;;
10489;SDS011;35569;48.402;10.670;2023-08-06T00:51:53;2.00;;;1.90;;
10489;SDS011;35569;48.402;10.670;2023-08-06T00:52:26;1.90;;;1.90;;
10489;SDS011;35569;48.402;10.670;2023-08-06T00:52:59;1.77;;;1.77;;
10489;SDS011;35569;48.402;10.670;2023-08-06T00:53:31;1.87;;;1.87;;
10489;SDS011;35569;48.402;10.670;2023-08-06T00:54:07;1.70;;;1.70;;
10489;SDS011;35569;48.402;10.670;2023-08-06T00:54:40;1.90;;;1.90;;
10489;SDS011;35569;48.402;10.670;2023-08-06T00:55:13;1.63;;;1.63;;
10489;SDS011;35569;48.402;10.670;2023-08-06T00:55:45;2.00;;;2.00;;
10489;SDS011;35569;48.402;10.670;2023-08-06T00:56:20;1.77;;;1.67;;
10489;SDS011;35569;48.402;10.670;2023-08-06T00:56:55;1.73;;;1.73;;
10489;SDS011;35569;48.402;10.670;2023-08-06T00:57:29;1.90;;;1.90;;
10489;SDS011;35569;48.402;10.670;2023-08-06T00:58:01;1.67;;;1.67;;
10489;SDS011;35569;48.402;10.670;2023-08-06T00:58:36;2.33;;;2.23;;
10489;SDS011;35569;48.402;10.670;2023-08-06T00:59:10;1.90;;;1.90;;
10489;SDS011;35569;48.402;10.670;2023-08-06T00:59:42;2.50;;;2.40;;
10489;SDS011;35569;48.402;10.670;2023-08-06T01:00:15;1.77;;;1.77;;
10489;SDS011;35569;48.402;10.670;2023-08-06T01:00:50;1.80;;;1.80;;
10489;SDS011;35569;48.402;10.670;2023-08-06T01:01:23;1.97;;;1.97;;
10489;SDS011;35569;48.402;10.670;2023-08-06T01:01:55;1.90;;;1.90;;
10489;SDS011;35569;48.402;10.670;2023-08-06T01:02:30;1.80;;;1.80;;
10489;SDS011;35569;48.402;10.670;2023-08-06T01:03:03;2.10;;;2.00;;
10489;SDS011;35569;48.402;10.670;2023-08-06T01:03:35;2.03;;;2.00;;
10489;SDS011;35569;48.402;10.670;2023-08-06T01:04:10;2.00;;;1.90;;
10489;SDS011;35569;48.402;10.670;2023-08-06T01:04:44;1.83;;;1.83;;
10489;SDS011;35569;48.402;10.670;2023-08-06T01:05:16;2.40;;;2.30;;
10489;SDS011;35569;48.402;10.670;2023-08-06T01:05:49;1.80;;;1.80;;
10489;SDS011;35569;48.402;10.670;2023-08-06T01:06:33;2.13;;;2.13;;
10489;SDS011;35569;48.402;10.670;2023-08-06T01:07:13;2.30;;;2.20;;
10489;SDS011;35569;48.402;10.670;2023-08-06T01:07:51;1.67;;;1.67;;
10489;SDS011;35569;48.402;10.670;2023-08-06T01:08:36;2.23;;;2.23;;
10489;SDS011;35569;48.402;10.670;2023-08-06T01:09:19;2.30;;;2.30;;
10489;SDS011;35569;48.402;10.670;2023-08-06T01:10:00;2.13;;;2.13;;
10489;SDS011;35569;48.402;10.670;2023-08-06T01:10:47;2.30;;;2.20;;
10489;SDS011;35569;48.402;10.670;2023-08-06T01:11:33;2.40;;;2.30;;
10489;SDS011;35569;48.402;10.670;2023-08-06T01:12:13;2.10;;;2.10;;
10489;SDS011;35569;48.402;10.670;2023-08-06T01:12:54;2.20;;;2.10;;
10489;SDS011;35569;48.402;10.670;2023-08-06T01:13:33;2.10;;;2.10;;
10489;SDS011;35569;48.402;10.670;2023-08-06T01:14:15;1.90;;;1.90;;
10489;SDS011;35569;48.402;10.670;2023-08-06T01:14:54;2.20;;;2.20;;
10489;SDS011;35569;48.402;10.670;2023-08-06T01:15:32;2.07;;;2.07;;
10489;SDS011;35569;48.402;10.670;2023-08-06T01:16:09;1.90;;;1.90;;
10489;SDS011;35569;48.402;10.670;2023-08-06T01:16:42;1.87;;;1.87;;
10489;SDS011;35569;48.402;10.670;2023-08-06T01:17:15;2.00;;;1.90;;
10489;SDS011;35569;48.402;10.670;2023-08-06T01:17:51;2.40;;;2.40;;
10489;SDS011;35569;48.402;10.670;2023-08-06T01:18:24;2.03;;;2.00;;
10489;SDS011;35569;48.402;10.670;2023-08-06T01:18:57;2.20;;;2.10;;
10489;SDS011;35569;48.402;10.670;2023-08-06T01:19:30;2.50;;;2.40;;
10489;SDS011;35569;48.402;10.670;2023-08-06T01:20:05;2.30;;;2.20;;
10489;SDS011;35569;48.402;10.670;2023-08-06T01:20:41;2.30;;;2.20;;
10489;SDS011;35569;48.402;10.670;2023-08-06T01:21:13;2.30;;;2.27;;
10489;SDS011;35569;48.402;10.670;2023-08-06T01:21:46;2.20;;;2.20;;
10489;SDS011;35569;48.402;10.670;2023-08-06T01:22:21;2.10;;;2.10;;
10489;SDS011;35569;48.402;10.670;2023-08-06T01:22:54;2.30;;;2.30;;
10489;SDS011;35569;48.402;10.670;2023-08-06T01:23:26;2.37;;;2.27;;
10489;SDS011;35569;48.402;10.670;2023-08-06T01:24:01;1.90;;;1.90;;
10489;SDS011;35569;48.402;10.670;2023-08-06T01:24:34;1.90;;;1.87;;
10489;SDS011;35569;48.402;10.670;2023-08-06T01:25:07;2.50;;;2.40;;
10489;SDS011;35569;48.402;10.670;2023-08-06T01:25:45;2.23;;;2.23;;
10489;SDS011;35569;48.402;10.670;2023-08-06T01:26:24;2.00;;;2.00;;
10489;SDS011;35569;48.402;10.670;2023-08-06T01:27:04;1.80;;;1.80;;
10489;SDS011;35569;48.402;10.670;2023-08-06T01:27:43;1.73;;;1.73;;
10489;SDS011;35569;48.402;10.670;2023-08-06T01:28:18;1.70;;;1.70;;
10489;SDS011;35569;48.402;10.670;2023-08-06T01:28:56;1.87;;;1.87;;
10489;SDS011;35569;48.402;10.670;2023-08-06T01:29:34;2.03;;;1.93;;
10489;SDS011;35569;48.402;10.670;2023-08-06T01:30:12;2.23;;;2.23;;
10489;SDS011;35569;48.402;10.670;2023-08-06T01:30:45;2.03;;;2.03;;
10489;SDS011;35569;48.402;10.670;2023-08-06T01:31:20;1.80;;;1.80;;
10489;SDS011;35569;48.402;10.670;2023-08-06T01:31:54;1.80;;;1.80;;
10489;SDS011;35569;48.402;10.670;2023-08-06T01:32:31;1.90;;;1.90;;
10489;SDS011;35569;48.402;10.670;2023-08-06T01:33:04;1.90;;;1.80;;
10489;SDS011;35569;48.402;10.670;2023-08-06T01:33:37;1.43;;;1.43;;
10489;SDS011;35569;48.402;10.670;2023-08-06T01:34:13;2.13;;;2.03;;
10489;SDS011;35569;48.402;10.670;2023-08-06T01:34:53;1.77;;;1.77;;
10489;SDS011;35569;48.402;10.670;2023-08-06T01:35:26;1.83;;;1.83;;
10489;SDS011;35569;48.402;10.670;2023-08-06T01:36:05;1.97;;;1.87;;
10489;SDS011;35569;48.402;10.670;2023-08-06T01:36:38;1.93;;;1.83;;
10489;SDS011;35569;48.402;10.670;2023-08-06T01:37:13;1.80;;;1.80;;
10489;SDS011;35569;48.402;10.670;2023-08-06T01:37:46;2.00;;;2.00;;
10489;SDS011;35569;48.402;10.670;2023-08-06T01:38:18;1.60;;;1.60;;
10489;SDS011;35569;48.402;10.670;2023-08-06T01:38:55;1.70;;;1.70;;
10489;SDS011;35569;48.402;10.670;2023-08-06T01:39:27;2.10;;;2.10;;
10489;SDS011;35569;48.402;10.670;2023-08-06T01:39:59;1.97;;;1.77;;
10489;SDS011;35569;48.402;10.670;2023-08-06T01:40:32;1.80;;;1.80;;
10489;SDS011;35569;48.402;10.670;2023-08-06T01:41:07;1.77;;;1.77;;
10489;SDS011;35569;48.402;10.670;2023-08-06T01:41:40;1.70;;;1.70;;
10489;SDS011;35569;48.402;10.670;2023-08-06T01:42:14;1.50;;;1.50;;
10489;SDS011;35569;48.402;10.670;2023-08-06T01:42:46;2.00;;;2.00;;
10489;SDS011;35569;48.402;10.670;2023-08-06T01:43:21;1.70;;;1.70;;
10489;SDS011;35569;48.402;10.670;2023-08-06T01:43:53;2.00;;;1.90;;
10489;SDS011;35569;48.402;10.670;2023-08-06T01:44:26;4.83;;;1.70;;
10489;SDS011;35569;48.402;10.670;2023-08-06T01:44:58;2.00;;;2.00;;
10489;SDS011;35569;48.402;10.670;2023-08-06T01:45:33;1.77;;;1.77;;
10489;SDS011;35569;48.402;10.670;2023-08-06T01:46:06;1.40;;;1.40;;
10489;SDS011;35569;48.402;10.670;2023-08-06T01:46:38;1.40;;;1.40;;
10489;SDS011;35569;48.402;10.670;2023-08-06T01:47:13;1.60;;;1.60;;
10489;SDS011;35569;48.402;10.670;2023-08-06T01:47:46;2.00;;;1.90;;
10489;SDS011;35569;48.402;10.670;2023-08-06T01:48:18;1.80;;;1.80;;
10489;SDS011;35569;48.402;10.670;2023-08-06T01:48:50;2.13;;;2.03;;
10489;SDS011;35569;48.402;10.670;2023-08-06T01:49:25;1.60;;;1.50;;
10489;SDS011;35569;48.402;10.670;2023-08-06T01:49:58;1.80;;;1.80;;
10489;SDS011;35569;48.402;10.670;2023-08-06T01:50:30;1.63;;;1.63;;
10489;SDS011;35569;48.402;10.670;2023-08-06T01:51:06;1.60;;;1.60;;
10489;SDS011;35569;48.402;10.670;2023-08-06T01:51:42;1.97;;;1.87;;
10489;SDS011;35569;48.402;10.670;2023-08-06T01:52:15;1.77;;;1.77;;
10489;SDS011;35569;48.402;10.670;2023-08-06T01:52:47;1.70;;;1.70;;
10489;SDS011;35569;48.402;10.670;2023-08-06T01:53:19;1.43;;;1.43;;
10489;SDS011;35569;48.402;10.670;2023-08-06T01:53:56;1.53;;;1.53;;
10489;SDS011;35569;48.402;10.670;2023-08-06T01:54:28;1.53;;;1.53;;
10489;SDS011;35569;48.402;10.670;2023-08-06T01:55:01;1.70;;;1.60;;
10489;SDS011;35569;48.402;10.670;2023-08-06T01:55:36;1.57;;;1.57;;
10489;SDS011;35569;48.402;10.670;2023-08-06T01:56:09;1.40;;;1.40;;
10489;SDS011;35569;48.402;10.670;2023-08-06T01:56:41;1.90;;;1.90;;
10489;SDS011;35569;48.402;10.670;2023-08-06T01:57:16;1.70;;;1.60;;
10489;SDS011;35569;48.402;10.670;2023-08-06T01:57:48;1.50;;;1.50;;
10489;SDS011;35569;48.402;10.670;2023-08-06T01:58:21;1.70;;;1.70;;
10489;SDS011;35569;48.402;10.670;2023-08-06T01:58:53;1.50;;;1.50;;
10489;SDS011;35569;48.402;10.670;2023-08-06T01:59:28;1.57;;;1.57;;
10489;SDS011;35569;48.402;10.670;2023-08-06T02:00:01;1.80;;;1.80;;
10489;SDS011;35569;48.402;10.670;2023-08-06T02:00:43;1.50;;;1.50;;
10489;SDS011;35569;48.402;10.670;2023-08-06T02:01:18;1.70;;;1.70;;
10489;SDS011;35569;48.402;10.670;2023-08-06T02:01:50;1.60;;;1.60;;
10489;SDS011;35569;48.402;10.670;2023-08-06T02:02:23;1.40;;;1.40;;
10489;SDS011;35569;48.402;10.670;2023-08-06T02:02:56;1.70;;;1.70;;
10489;SDS011;35569;48.402;10.670;2023-08-06T02:03:31;1.60;;;1.60;;
10489;SDS011;35569;48.402;10.670;2023-08-06T02:04:04;1.40;;;1.40;;
10489;SDS011;35569;48.402;10.670;2023-08-06T02:04:37;1.70;;;1.70;;
10489;SDS011;35569;48.402;10.670;2023-08-06T02:05:09;1.50;;;1.50;;
10489;SDS011;35569;48.402;10.670;2023-08-06T02:05:44;1.47;;;1.47;;
10489;SDS011;35569;48.402;10.670;2023-08-06T02:06:20;1.70;;;1.63;;
10489;SDS011;35569;48.402;10.670;2023-08-06T02:06:52;1.40;;;1.40;;
10489;SDS011;35569;48.402;10.670;2023-08-06T02:07:24;1.80;;;1.80;;
10489;SDS011;35569;48.402;10.670;2023-08-06T02:08:01;1.70;;;1.70;;
10489;SDS011;35569;48.402;10.670;2023-08-06T02:08:34;1.40;;;1.40;;
10489;SDS011;35569;48.402;10.670;2023-08-06T02:09:07;1.60;;;1.60;;
10489;SDS011;35569;48.402;10.670;2023-08-06T02:09:42;1.63;;;1.63;;
10489;SDS011;35569;48.402;10.670;2023-08-06T02:10:14;1.60;;;1.60;;
10489;SDS011;35569;48.402;10.670;2023-08-06T02:10:47;1.30;;;1.30;;
10489;SDS011;35569;48.402;10.670;2023-08-06T02:11:22;1.70;;;1.70;;
10489;SDS011;35569;48.402;10.670;2023-08-06T02:11:54;1.30;;;1.30;;
10489;SDS011;35569;48.402;10.670;2023-08-06T02:12:26;1.40;;;1.40;;
10489;SDS011;35569;48.402;10.670;2023-08-06T02:12:59;1.50;;;1.50;;
10489;SDS011;35569;48.402;10.670;2023-08-06T02:13:34;1.53;;;1.53;;
10489;SDS011;35569;48.402;10.670;2023-08-06T02:14:07;1.57;;;1.57;;
10489;SDS011;35569;48.402;10.670;2023-08-06T02:14:39;1.80;;;1.80;;
10489;SDS011;35569;48.402;10.670;2023-08-06T02:15:12;1.57;;;1.57;;
10489;SDS011;35569;48.402;10.670;2023-08-06T02:15:48;1.30;;;1.30;;
10489;SDS011;35569;48.402;10.670;2023-08-06T02:16:20;1.50;;;1.50;;
10489;SDS011;35569;48.402;10.670;2023-08-06T02:16:52;1.90;;;1.90;;
10489;SDS011;35569;48.402;10.670;2023-08-06T02:17:25;1.57;;;1.57;;
10489;SDS011;35569;48.402;10.670;2023-08-06T02:18:00;1.60;;;1.60;;
10489;SDS011;35569;48.402;10.670;2023-08-06T02:18:32;1.43;;;1.43;;
10489;SDS011;35569;48.402;10.670;2023-08-06T02:19:05;1.60;;;1.60;;
10489;SDS011;35569;48.402;10.670;2023-08-06T02:19:37;1.57;;;1.57;;
10489;SDS011;35569;48.402;10.670;2023-08-06T02:20:12;1.20;;;1.20;;
10489;SDS011;35569;48.402;10.670;2023-08-06T02:20:54;1.70;;;1.70;;
10489;SDS011;35569;48.402;10.670;2023-08-06T02:21:30;1.40;;;1.40;;
10489;SDS011;35569;48.402;10.670;2023-08-06T02:22:05;1.13;;;1.13;;
10489;SDS011;35569;48.402;10.670;2023-08-06T02:22:37;1.60;;;1.60;;
10489;SDS011;35569;48.402;10.670;2023-08-06T02:23:10;1.50;;;1.50;;
10489;SDS011;35569;48.402;10.670;2023-08-06T02:23:42;1.40;;;1.40;;
10489;SDS011;35569;48.402;10.670;2023-08-06T02:24:17;1.50;;;1.50;;
10489;SDS011;35569;48.402;10.670;2023-08-06T02:24:49;1.30;;;1.30;;
10489;SDS011;35569;48.402;10.670;2023-08-06T02:25:22;1.70;;;1.70;;
10489;SDS011;35569;48.402;10.670;2023-08-06T02:25:57;1.43;;;1.43;;
10489;SDS011;35569;48.402;10.670;2023-08-06T02:26:33;1.50;;;1.50;;
10489;SDS011;35569;48.402;10.670;2023-08-06T02:27:06;1.40;;;1.40;;
10489;SDS011;35569;48.402;10.670;2023-08-06T02:27:38;1.30;;;1.30;;
10489;SDS011;35569;48.402;10.670;2023-08-06T02:28:11;1.20;;;1.20;;
10489;SDS011;35569;48.402;10.670;2023-08-06T02:28:46;1.23;;;1.23;;
10489;SDS011;35569;48.402;10.670;2023-08-06T02:29:18;2.20;;;1.50;;
10489;SDS011;35569;48.402;10.670;2023-08-06T02:29:51;1.30;;;1.30;;
10489;SDS011;35569;48.402;10.670;2023-08-06T02:30:23;1.50;;;1.50;;
10489;SDS011;35569;48.402;10.670;2023-08-06T02:30:58;1.70;;;1.60;;
10489;SDS011;35569;48.402;10.670;2023-08-06T02:31:31;1.40;;;1.40;;
10489;SDS011;35569;48.402;10.670;2023-08-06T02:32:04;1.70;;;1.63;;
10489;SDS011;35569;48.402;10.670;2023-08-06T02:32:37;1.60;;;1.50;;
10489;SDS011;35569;48.402;10.670;2023-08-06T02:33:12;1.43;;;1.43;;
10489;SDS011;35569;48.402;10.670;2023-08-06T02:33:44;1.57;;;1.57;;
10489;SDS011;35569;48.402;10.670;2023-08-06T02:34:17;1.53;;;1.53;;
10489;SDS011;35569;48.402;10.670;2023-08-06T02:34:50;1.43;;;1.43;;
10489;SDS011;35569;48.402;10.670;2023-08-06T02:35:25;1.10;;;1.10;;
10489;SDS011;35569;48.402;10.670;2023-08-06T02:36:00;1.60;;;1.60;;
10489;SDS011;35569;48.402;10.670;2023-08-06T02:36:36;1.47;;;1.47;;
10489;SDS011;35569;48.402;10.670;2023-08-06T02:37:11;1.53;;;1.53;;
10489;SDS011;35569;48.402;10.670;2023-08-06T02:37:43;1.53;;;1.53;;
10489;SDS011;35569;48.402;10.670;2023-08-06T02:38:15;1.30;;;1.30;;
10489;SDS011;35569;48.402;10.670;2023-08-06T02:38:48;1.50;;;1.40;;
10489;SDS011;35569;48.402;10.670;2023-08-06T02:39:23;1.50;;;1.50;;
10489;SDS011;35569;48.402;10.670;2023-08-06T02:39:55;1.80;;;1.80;;
10489;SDS011;35569;48.402;10.670;2023-08-06T02:40:28;1.60;;;1.60;;
10489;SDS011;35569;48.402;10.670;2023-08-06T02:41:01;1.70;;;1.70;;
10489;SDS011;35569;48.402;10.670;2023-08-06T02:41:37;1.53;;;1.53;;
10489;SDS011;35569;48.402;10.670;2023-08-06T02:42:09;1.30;;;1.30;;
10489;SDS011;35569;48.402;10.670;2023-08-06T02:42:41;1.33;;;1.33;;
10489;SDS011;35569;48.402;10.670;2023-08-06T02:43:14;1.70;;;1.70;;
10489;SDS011;35569;48.402;10.670;2023-08-06T02:43:49;1.60;;;1.60;;
10489;SDS011;35569;48.402;10.670;2023-08-06T02:44:22;1.50;;;1.50;;
10489;SDS011;35569;48.402;10.670;2023-08-06T02:44:54;1.50;;;1.50;;
10489;SDS011;35569;48.402;10.670;2023-08-06T02:45:26;1.40;;;1.40;;
10489;SDS011;35569;48.402;10.670;2023-08-06T02:46:02;1.40;;;1.40;;
10489;SDS011;35569;48.402;10.670;2023-08-06T02:46:34;1.33;;;1.33;;
10489;SDS011;35569;48.402;10.670;2023-08-06T02:47:07;1.60;;;1.60;;
10489;SDS011;35569;48.402;10.670;2023-08-06T02:47:39;1.40;;;1.40;;
10489;SDS011;35569;48.402;10.670;2023-08-06T02:48:14;1.23;;;1.23;;
10489;SDS011;35569;48.402;10.670;2023-08-06T02:48:47;1.30;;;1.30;;
10489;SDS011;35569;48.402;10.670;2023-08-06T02:49:19;1.60;;;1.60;;
10489;SDS011;35569;48.402;10.670;2023-08-06T02:49:54;1.40;;;1.40;;
10489;SDS011;35569;48.402;10.670;2023-08-06T02:50:26;1.60;;;1.60;;
10489;SDS011;35569;48.402;10.670;2023-08-06T02:50:59;1.47;;;1.47;;
10489;SDS011;35569;48.402;10.670;2023-08-06T02:51:36;1.43;;;1.40;;
10489;SDS011;35569;48.402;10.670;2023-08-06T02:52:11;1.53;;;1.53;;
10489;SDS011;35569;48.402;10.670;2023-08-06T02:52:44;1.13;;;1.13;;
10489;SDS011;35569;48.402;10.670;2023-08-06T02:53:17;1.73;;;1.73;;
10489;SDS011;35569;48.402;10.670;2023-08-06T02:53:52;1.50;;;1.50;;
10489;SDS011;35569;48.402;10.670;2023-08-06T02:54:27;1.30;;;1.30;;
10489;SDS011;35569;48.402;10.670;2023-08-06T02:55:01;1.40;;;1.40;;
10489;SDS011;35569;48.402;10.670;2023-08-06T02:55:35;1.27;;;1.27;;
10489;SDS011;35569;48.402;10.670;2023-08-06T02:56:14;1.30;;;1.30;;
10489;SDS011;35569;48.402;10.670;2023-08-06T02:57:15;1.40;;;1.40;;
10489;SDS011;35569;48.402;10.670;2023-08-06T02:57:48;1.50;;;1.50;;
10489;SDS011;35569;48.402;10.670;2023-08-06T02:58:20;1.30;;;1.30;;
10489;SDS011;35569;48.402;10.670;2023-08-06T02:59:13;1.53;;;1.47;;
10489;SDS011;35569;48.402;10.670;2023-08-06T02:59:56;1.50;;;1.50;;
10489;SDS011;35569;48.402;10.670;2023-08-06T03:00:29;1.87;;;1.87;;
10489;SDS011;35569;48.402;10.670;2023-08-06T03:01:06;1.60;;;1.60;;
10489;SDS011;35569;48.402;10.670;2023-08-06T03:01:52;1.20;;;1.20;;
10489;SDS011;35569;48.402;10.670;2023-08-06T03:02:32;1.50;;;1.50;;
10489;SDS011;35569;48.402;10.670;2023-08-06T03:03:33;1.30;;;1.30;;
10489;SDS011;35569;48.402;10.670;2023-08-06T03:04:07;1.40;;;1.40;;
10489;SDS011;35569;48.402;10.670;2023-08-06T03:04:44;1.67;;;1.67;;
10489;SDS011;35569;48.402;10.670;2023-08-06T03:05:21;1.30;;;1.30;;
10489;SDS011;35569;48.402;10.670;2023-08-06T03:05:54;2.23;;;1.53;;
10489;SDS011;35569;48.402;10.670;2023-08-06T03:06:42;1.50;;;1.50;;
10489;SDS011;35569;48.402;10.670;2023-08-06T03:07:15;1.33;;;1.33;;
10489;SDS011;35569;48.402;10.670;2023-08-06T03:07:57;1.20;;;1.20;;
10489;SDS011;35569;48.402;10.670;2023-08-06T03:08:33;1.30;;;1.30;;
10489;SDS011;35569;48.402;10.670;2023-08-06T03:09:05;1.23;;;1.23;;
10489;SDS011;35569;48.402;10.670;2023-08-06T03:09:40;1.20;;;1.20;;
10489;SDS011;35569;48.402;10.670;2023-08-06T03:10:12;1.30;;;1.30;;
10489;SDS011;35569;48.402;10.670;2023-08-06T03:10:46;1.37;;;1.37;;
10489;SDS011;35569;48.402;10.670;2023-08-06T03:11:23;1.40;;;1.40;;
10489;SDS011;35569;48.402;10.670;2023-08-06T03:12:00;1.20;;;1.20;;
10489;SDS011;35569;48.402;10.670;2023-08-06T03:12:32;1.20;;;1.20;;
10489;SDS011;35569;48.402;10.670;2023-08-06T03:13:07;1.60;;;1.60;;
10489;SDS011;35569;48.402;10.670;2023-08-06T03:13:42;1.50;;;1.50;;
10489;SDS011;35569;48.402;10.670;2023-08-06T03:14:15;1.40;;;1.40;;
10489;SDS011;35569;48.402;10.670;2023-08-06T03:14:48;1.13;;;1.13;;
10489;SDS011;35569;48.402;10.670;2023-08-06T03:15:24;1.43;;;1.43;;
10489;SDS011;35569;48.402;10.670;2023-08-06T03:15:58;1.37;;;1.37;;
10489;SDS011;35569;48.402;10.670;2023-08-06T03:16:33;1.43;;;1.43;;
10489;SDS011;35569;48.402;10.670;2023-08-06T03:17:08;1.27;;;1.27;;
10489;SDS011;35569;48.402;10.670;2023-08-06T03:17:41;1.33;;;1.33;;
10489;SDS011;35569;48.402;10.670;2023-08-06T03:18:16;1.50;;;1.50;;
10489;SDS011;35569;48.402;10.670;2023-08-06T03:18:49;1.30;;;1.30;;
10489;SDS011;35569;48.402;10.670;2023-08-06T03:19:25;1.40;;;1.40;;
10489;SDS011;35569;48.402;10.670;2023-08-06T03:19:58;1.30;;;1.30;;
10489;SDS011;35569;48.402;10.670;2023-08-06T03:20:32;1.20;;;1.20;;
10489;SDS011;35569;48.402;10.670;2023-08-06T03:21:04;1.30;;;1.30;;
10489;SDS011;35569;48.402;10.670;2023-08-06T03:21:39;2.70;;;1.53;;
10489;SDS011;35569;48.402;10.670;2023-08-06T03:22:14;1.63;;;1.63;;
10489;SDS011;35569;48.402;10.670;2023-08-06T03:22:47;1.13;;;1.13;;
10489;SDS011;35569;48.402;10.670;2023-08-06T03:23:19;1.37;;;1.37;;
10489;SDS011;35569;48.402;10.670;2023-08-06T03:23:55;1.30;;;1.20;;
10489;SDS011;35569;48.402;10.670;2023-08-06T03:24:30;1.07;;;1.07;;